sensor_id;sensor_type;location;lat;lon;timestamp;pressure;altitude;pressure_sealevel;temperature;humidity
59489;BME280;52572;55.144;73.372;2022-07-06T04:04:55;98890.63;;;19.91;74.71
59489;BME280;52572;55.144;73.372;2022-07-06T04:07:22;98864.66;;;19.76;75.63
59489;BME280;52572;55.144;73.372;2022-07-06T04:09:49;98863.00;;;19.75;74.72
59489;BME280;52572;55.144;73.372;2022-07-06T04:12:15;98890.63;;;19.83;75.00
59489;BME280;52572;55.144;73.372;2022-07-06T04:17:54;98885.69;;;20.13;73.61
59489;BME280;52572;55.144;73.372;2022-07-06T04:20:29;98883.34;;;20.18;72.95
59489;BME280;52572;55.144;73.372;2022-07-06T04:22:58;98895.31;;;20.30;72.64
59489;BME280;52572;55.144;73.372;2022-07-06T04:25:25;98825.41;;;20.03;73.37
59489;BME280;52572;55.144;73.372;2022-07-06T04:27:54;98907.09;;;20.69;73.91
59489;BME280;52572;55.144;73.372;2022-07-06T04:30:22;98893.91;;;20.93;74.35
59489;BME280;52572;55.144;73.372;2022-07-06T04:32:48;98902.19;;;21.06;73.62
59489;BME280;52572;55.144;73.372;2022-07-06T04:35:15;98877.75;;;20.94;70.83
59489;BME280;52572;55.144;73.372;2022-07-06T04:37:43;98908.03;;;21.02;70.19
59489;BME280;52572;55.144;73.372;2022-07-06T04:40:24;98909.06;;;20.92;70.69
59489;BME280;52572;55.144;73.372;2022-07-06T04:42:54;98912.19;;;21.04;71.00
59489;BME280;52572;55.144;73.372;2022-07-06T04:45:21;98909.78;;;21.26;69.57
59489;BME280;52572;55.144;73.372;2022-07-06T04:47:48;98915.31;;;21.56;68.86
59489;BME280;52572;55.144;73.372;2022-07-06T04:50:14;98919.13;;;21.94;70.02
59489;BME280;52572;55.144;73.372;2022-07-06T04:52:42;98893.84;;;22.20;66.71
59489;BME280;52572;55.144;73.372;2022-07-06T04:55:13;98929.47;;;22.74;65.89
59489;BME280;52572;55.144;73.372;2022-07-06T04:57:41;98910.38;;;22.77;65.70
59489;BME280;52572;55.144;73.372;2022-07-06T05:00:08;98933.53;;;23.00;64.83
59489;BME280;52572;55.144;73.372;2022-07-06T05:02:35;98920.72;;;22.80;64.14
59489;BME280;52572;55.144;73.372;2022-07-06T05:05:03;98947.91;;;22.68;64.80
59489;BME280;52572;55.144;73.372;2022-07-06T05:07:29;98927.44;;;22.37;66.59
59489;BME280;52572;55.144;73.372;2022-07-06T05:09:57;98920.34;;;22.06;65.52
59489;BME280;52572;55.144;73.372;2022-07-06T05:12:23;98959.50;;;21.99;67.00
59489;BME280;52572;55.144;73.372;2022-07-06T05:14:50;98946.72;;;21.86;66.45
59489;BME280;52572;55.144;73.372;2022-07-06T05:17:19;98942.56;;;21.83;65.97
59489;BME280;52572;55.144;73.372;2022-07-06T05:19:58;98963.22;;;21.89;64.94
59489;BME280;52572;55.144;73.372;2022-07-06T05:22:25;98939.97;;;21.58;64.51
59489;BME280;52572;55.144;73.372;2022-07-06T05:24:52;98977.00;;;21.61;65.29
59489;BME280;52572;55.144;73.372;2022-07-06T05:27:20;98955.72;;;21.45;65.65
59489;BME280;52572;55.144;73.372;2022-07-06T05:29:47;98986.19;;;21.59;64.64
59489;BME280;52572;55.144;73.372;2022-07-06T05:32:14;98991.94;;;21.47;66.05
59489;BME280;52572;55.144;73.372;2022-07-06T05:34:41;98986.16;;;21.19;69.41
59489;BME280;52572;55.144;73.372;2022-07-06T05:37:09;99000.56;;;20.76;69.99
59489;BME280;52572;55.144;73.372;2022-07-06T05:39:37;98988.94;;;20.52;70.87
59489;BME280;52572;55.144;73.372;2022-07-06T05:42:08;98973.91;;;20.10;72.12
59489;BME280;52572;55.144;73.372;2022-07-06T05:44:43;98996.88;;;20.11;71.85
59489;BME280;52572;55.144;73.372;2022-07-06T05:47:09;98980.81;;;19.94;71.58
59489;BME280;52572;55.144;73.372;2022-07-06T05:49:59;98983.88;;;19.99;71.17
59489;BME280;52572;55.144;73.372;2022-07-06T05:53:03;98990.72;;;20.10;71.32
59489;BME280;52572;55.144;73.372;2022-07-06T05:55:40;99020.56;;;20.39;71.42
59489;BME280;52572;55.144;73.372;2022-07-06T05:58:07;99013.25;;;20.74;70.27
59489;BME280;52572;55.144;73.372;2022-07-06T06:00:34;98991.56;;;21.02;70.28
59489;BME280;52572;55.144;73.372;2022-07-06T06:03:05;98991.50;;;21.27;67.25
59489;BME280;52572;55.144;73.372;2022-07-06T06:05:37;99010.38;;;21.65;67.56
59489;BME280;52572;55.144;73.372;2022-07-06T06:08:14;99003.59;;;21.95;66.34
59489;BME280;52572;55.144;73.372;2022-07-06T06:10:40;99011.09;;;22.23;65.27
59489;BME280;52572;55.144;73.372;2022-07-06T06:13:10;99015.47;;;22.39;63.84
59489;BME280;52572;55.144;73.372;2022-07-06T06:15:44;99014.41;;;22.25;62.82
59489;BME280;52572;55.144;73.372;2022-07-06T06:18:20;99011.09;;;22.23;64.75
59489;BME280;52572;55.144;73.372;2022-07-06T06:20:46;98997.19;;;22.27;63.57
59489;BME280;52572;55.144;73.372;2022-07-06T06:23:16;99011.56;;;22.50;62.79
59489;BME280;52572;55.144;73.372;2022-07-06T06:25:42;99003.66;;;22.56;63.83
59489;BME280;52572;55.144;73.372;2022-07-06T06:28:10;99003.78;;;22.63;62.30
59489;BME280;52572;55.144;73.372;2022-07-06T06:30:41;99007.69;;;22.76;63.89
59489;BME280;52572;55.144;73.372;2022-07-06T06:35:59;99002.94;;;23.16;61.33
59489;BME280;52572;55.144;73.372;2022-07-06T06:38:25;99005.44;;;23.18;59.59
59489;BME280;52572;55.144;73.372;2022-07-06T06:41:02;99001.72;;;23.04;59.60
59489;BME280;52572;55.144;73.372;2022-07-06T06:43:28;99024.28;;;23.24;59.22
59489;BME280;52572;55.144;73.372;2022-07-06T06:46:27;98958.69;;;22.60;59.00
59489;BME280;52572;55.144;73.372;2022-07-06T06:48:53;99014.75;;;22.92;59.91
59489;BME280;52572;55.144;73.372;2022-07-06T06:51:20;99022.06;;;23.13;59.09
59489;BME280;52572;55.144;73.372;2022-07-06T06:53:47;99012.25;;;23.05;57.45
59489;BME280;52572;55.144;73.372;2022-07-06T06:56:13;99019.56;;;23.11;58.21
59489;BME280;52572;55.144;73.372;2022-07-06T06:58:39;99008.97;;;23.18;57.33
59489;BME280;52572;55.144;73.372;2022-07-06T07:01:06;98998.72;;;23.37;57.49
59489;BME280;52572;55.144;73.372;2022-07-06T07:03:33;99016.97;;;23.63;58.51
59489;BME280;52572;55.144;73.372;2022-07-06T07:05:59;98962.53;;;23.26;58.05
59489;BME280;52572;55.144;73.372;2022-07-06T07:08:26;99001.81;;;23.71;58.13
59489;BME280;52572;55.144;73.372;2022-07-06T07:10:52;99010.88;;;24.07;56.77
59489;BME280;52572;55.144;73.372;2022-07-06T07:13:18;98993.59;;;23.72;56.69
59489;BME280;52572;55.144;73.372;2022-07-06T07:15:45;99011.16;;;23.60;59.59
59489;BME280;52572;55.144;73.372;2022-07-06T07:18:12;99004.75;;;23.91;58.93
59489;BME280;52572;55.144;73.372;2022-07-06T07:20:38;99017.22;;;24.21;55.72
59489;BME280;52572;55.144;73.372;2022-07-06T07:23:04;98984.78;;;24.30;55.15
59489;BME280;52572;55.144;73.372;2022-07-06T07:25:31;99017.13;;;24.51;55.63
59489;BME280;52572;55.144;73.372;2022-07-06T07:27:57;98979.16;;;23.88;57.50
59489;BME280;52572;55.144;73.372;2022-07-06T07:30:23;98992.22;;;23.76;58.53
59489;BME280;52572;55.144;73.372;2022-07-06T07:32:50;98965.47;;;23.31;59.62
59489;BME280;52572;55.144;73.372;2022-07-06T07:35:19;99003.44;;;23.50;59.08
59489;BME280;52572;55.144;73.372;2022-07-06T07:37:50;99001.47;;;23.29;59.27
59489;BME280;52572;55.144;73.372;2022-07-06T07:40:22;99024.63;;;23.21;60.14
59489;BME280;52572;55.144;73.372;2022-07-06T07:42:51;99024.00;;;23.19;61.43
59489;BME280;52572;55.144;73.372;2022-07-06T07:45:17;99022.69;;;23.30;60.34
59489;BME280;52572;55.144;73.372;2022-07-06T07:47:43;99029.97;;;23.21;59.98
59489;BME280;52572;55.144;73.372;2022-07-06T07:50:10;98998.19;;;22.88;60.20
59489;BME280;52572;55.144;73.372;2022-07-06T07:52:36;99033.22;;;23.02;60.79
59489;BME280;52572;55.144;73.372;2022-07-06T07:55:16;99033.50;;;23.07;59.06
59489;BME280;52572;55.144;73.372;2022-07-06T07:57:42;99038.09;;;22.98;59.90
59489;BME280;52572;55.144;73.372;2022-07-06T08:00:09;99037.66;;;23.09;58.15
59489;BME280;52572;55.144;73.372;2022-07-06T08:02:47;99019.31;;;22.83;58.92
59489;BME280;52572;55.144;73.372;2022-07-06T08:05:14;99029.03;;;22.99;60.18
59489;BME280;52572;55.144;73.372;2022-07-06T08:07:42;99031.09;;;23.27;59.31
59489;BME280;52572;55.144;73.372;2022-07-06T08:10:09;99040.56;;;23.90;59.43
59489;BME280;52572;55.144;73.372;2022-07-06T08:12:36;99055.59;;;24.21;57.13
59489;BME280;52572;55.144;73.372;2022-07-06T08:15:04;99059.56;;;24.47;57.18
59489;BME280;52572;55.144;73.372;2022-07-06T08:17:30;99052.44;;;24.54;57.62
59489;BME280;52572;55.144;73.372;2022-07-06T08:19:57;99041.88;;;24.75;56.24
59489;BME280;52572;55.144;73.372;2022-07-06T08:22:30;99053.63;;;25.24;55.29
59489;BME280;52572;55.144;73.372;2022-07-06T08:24:56;99036.03;;;25.21;55.61
59489;BME280;52572;55.144;73.372;2022-07-06T08:27:24;99037.06;;;25.20;54.63
59489;BME280;52572;55.144;73.372;2022-07-06T08:29:51;99046.59;;;25.23;53.97
59489;BME280;52572;55.144;73.372;2022-07-06T08:32:22;99050.94;;;25.59;52.25
59489;BME280;52572;55.144;73.372;2022-07-06T08:34:48;99053.25;;;25.27;54.07
59489;BME280;52572;55.144;73.372;2022-07-06T08:37:14;99031.97;;;24.97;51.73
59489;BME280;52572;55.144;73.372;2022-07-06T08:39:41;99058.88;;;24.82;53.15
59489;BME280;52572;55.144;73.372;2022-07-06T08:42:16;99069.16;;;24.56;53.13
59489;BME280;52572;55.144;73.372;2022-07-06T08:44:44;99041.97;;;24.38;56.27
59489;BME280;52572;55.144;73.372;2022-07-06T08:47:12;99060.28;;;24.56;57.12
59489;BME280;52572;55.144;73.372;2022-07-06T08:49:43;99037.88;;;24.42;57.02
59489;BME280;52572;55.144;73.372;2022-07-06T08:52:15;99068.78;;;24.60;57.73
59489;BME280;52572;55.144;73.372;2022-07-06T08:54:55;99066.28;;;24.58;55.17
59489;BME280;52572;55.144;73.372;2022-07-06T08:57:24;99053.75;;;24.43;53.67
59489;BME280;52572;55.144;73.372;2022-07-06T09:00:01;99061.50;;;24.31;53.13
59489;BME280;52572;55.144;73.372;2022-07-06T09:02:33;99049.13;;;24.15;52.90
59489;BME280;52572;55.144;73.372;2022-07-06T09:05:02;99060.31;;;24.19;52.27
59489;BME280;52572;55.144;73.372;2022-07-06T09:07:30;99083.13;;;24.30;54.70
59489;BME280;52572;55.144;73.372;2022-07-06T09:09:59;99076.16;;;24.36;53.69
59489;BME280;52572;55.144;73.372;2022-07-06T09:12:29;99082.22;;;24.44;55.61
59489;BME280;52572;55.144;73.372;2022-07-06T09:14:57;99077.28;;;24.63;53.84
59489;BME280;52572;55.144;73.372;2022-07-06T09:17:29;99086.56;;;24.82;53.83
59489;BME280;52572;55.144;73.372;2022-07-06T09:19:56;99071.66;;;25.02;51.52
59489;BME280;52572;55.144;73.372;2022-07-06T09:22:30;99075.69;;;24.91;51.63
59489;BME280;52572;55.144;73.372;2022-07-06T09:25:08;99088.97;;;24.99;50.74
59489;BME280;52572;55.144;73.372;2022-07-06T09:27:42;99057.72;;;25.20;50.43
59489;BME280;52572;55.144;73.372;2022-07-06T09:30:19;99063.97;;;25.27;50.37
59489;BME280;52572;55.144;73.372;2022-07-06T09:32:48;99076.63;;;25.69;52.23
59489;BME280;52572;55.144;73.372;2022-07-06T09:35:30;99083.16;;;26.01;48.84
59489;BME280;52572;55.144;73.372;2022-07-06T09:38:11;99081.22;;;25.75;50.61
59489;BME280;52572;55.144;73.372;2022-07-06T09:40:44;99091.34;;;25.73;50.20
59489;BME280;52572;55.144;73.372;2022-07-06T09:43:19;99089.97;;;25.90;50.79
59489;BME280;52572;55.144;73.372;2022-07-06T09:45:49;99080.44;;;25.88;50.12
59489;BME280;52572;55.144;73.372;2022-07-06T09:48:17;99077.44;;;25.62;49.50
59489;BME280;52572;55.144;73.372;2022-07-06T09:50:49;99073.09;;;25.33;49.09
59489;BME280;52572;55.144;73.372;2022-07-06T09:53:37;99067.81;;;24.67;53.67
59489;BME280;52572;55.144;73.372;2022-07-06T09:56:04;99103.09;;;24.86;52.96
59489;BME280;52572;55.144;73.372;2022-07-06T09:58:31;99081.28;;;24.52;52.20
59489;BME280;52572;55.144;73.372;2022-07-06T10:00:57;99092.16;;;24.44;54.86
59489;BME280;52572;55.144;73.372;2022-07-06T10:03:23;99072.09;;;24.40;53.64
59489;BME280;52572;55.144;73.372;2022-07-06T10:05:50;99116.66;;;24.63;53.67
59489;BME280;52572;55.144;73.372;2022-07-06T10:08:36;99116.13;;;24.67;54.54
59489;BME280;52572;55.144;73.372;2022-07-06T10:11:02;99122.94;;;24.70;55.35
59489;BME280;52572;55.144;73.372;2022-07-06T10:13:29;99097.84;;;24.56;54.22
59489;BME280;52572;55.144;73.372;2022-07-06T10:15:57;99096.06;;;24.63;53.93
59489;BME280;52572;55.144;73.372;2022-07-06T10:18:43;99093.56;;;24.62;54.54
59489;BME280;52572;55.144;73.372;2022-07-06T10:21:10;99113.44;;;24.67;55.13
59489;BME280;52572;55.144;73.372;2022-07-06T10:23:38;99084.19;;;24.36;55.80
59489;BME280;52572;55.144;73.372;2022-07-06T10:26:06;99088.97;;;24.18;56.14
59489;BME280;52572;55.144;73.372;2022-07-06T10:28:37;99114.94;;;24.18;56.06
59489;BME280;52572;55.144;73.372;2022-07-06T10:31:03;99132.31;;;24.22;59.98
59489;BME280;52572;55.144;73.372;2022-07-06T10:33:31;99115.34;;;24.15;59.35
59489;BME280;52572;55.144;73.372;2022-07-06T10:35:59;99106.47;;;23.99;59.71
59489;BME280;52572;55.144;73.372;2022-07-06T10:38:32;99111.06;;;24.05;59.89
59489;BME280;52572;55.144;73.372;2022-07-06T10:41:12;99135.81;;;24.38;59.47
59489;BME280;52572;55.144;73.372;2022-07-06T10:43:44;99108.91;;;24.31;59.57
59489;BME280;52572;55.144;73.372;2022-07-06T10:46:15;99139.22;;;24.47;59.33
59489;BME280;52572;55.144;73.372;2022-07-06T10:48:44;99145.09;;;24.57;58.92
59489;BME280;52572;55.144;73.372;2022-07-06T10:51:13;99135.44;;;24.63;59.30
59489;BME280;52572;55.144;73.372;2022-07-06T10:53:58;99141.06;;;24.68;59.12
59489;BME280;52572;55.144;73.372;2022-07-06T10:56:38;99140.44;;;24.66;58.64
59489;BME280;52572;55.144;73.372;2022-07-06T10:59:17;99142.03;;;24.60;59.56
59489;BME280;52572;55.144;73.372;2022-07-06T11:02:11;99155.31;;;24.47;59.75
59489;BME280;52572;55.144;73.372;2022-07-06T11:04:45;99144.00;;;24.73;60.16
59489;BME280;52572;55.144;73.372;2022-07-06T11:07:14;99152.25;;;24.71;59.03
59489;BME280;52572;55.144;73.372;2022-07-06T11:09:54;99149.63;;;24.56;59.68
59489;BME280;52572;55.144;73.372;2022-07-06T11:12:21;99136.94;;;24.28;58.58
59489;BME280;52572;55.144;73.372;2022-07-06T11:14:57;99156.56;;;24.14;59.42
59489;BME280;52572;55.144;73.372;2022-07-06T11:17:32;99153.22;;;23.82;60.12
59489;BME280;52572;55.144;73.372;2022-07-06T11:20:10;99142.13;;;23.55;60.90
59489;BME280;52572;55.144;73.372;2022-07-06T11:22:48;99157.72;;;23.51;61.20
59489;BME280;52572;55.144;73.372;2022-07-06T11:25:21;99147.03;;;23.28;61.49
59489;BME280;52572;55.144;73.372;2022-07-06T11:27:47;99167.63;;;23.27;62.11
59489;BME280;52572;55.144;73.372;2022-07-06T11:30:14;99160.84;;;23.16;62.15
59489;BME280;52572;55.144;73.372;2022-07-06T11:32:50;99178.09;;;23.14;62.58
59489;BME280;52572;55.144;73.372;2022-07-06T11:35:22;99174.31;;;23.08;62.57
59489;BME280;52572;55.144;73.372;2022-07-06T11:37:57;99187.94;;;22.98;62.78
59489;BME280;52572;55.144;73.372;2022-07-06T11:40:28;99183.41;;;22.98;62.02
59489;BME280;52572;55.144;73.372;2022-07-06T11:43:01;99176.22;;;22.99;62.87
59489;BME280;52572;55.144;73.372;2022-07-06T11:45:27;99149.63;;;22.97;63.87
59489;BME280;52572;55.144;73.372;2022-07-06T11:48:09;99178.34;;;23.27;62.67
59489;BME280;52572;55.144;73.372;2022-07-06T11:50:42;99177.50;;;23.65;61.87
59489;BME280;52572;55.144;73.372;2022-07-06T11:53:14;99182.50;;;23.98;61.51
59489;BME280;52572;55.144;73.372;2022-07-06T11:55:41;99152.38;;;23.96;60.27
59489;BME280;52572;55.144;73.372;2022-07-06T11:58:10;99172.81;;;24.27;59.79
59489;BME280;52572;55.144;73.372;2022-07-06T12:00:38;99158.16;;;24.45;60.20
59489;BME280;52572;55.144;73.372;2022-07-06T12:03:04;99154.22;;;24.63;59.92
59489;BME280;52572;55.144;73.372;2022-07-06T12:05:42;99133.72;;;24.77;59.76
59489;BME280;52572;55.144;73.372;2022-07-06T12:08:14;99157.47;;;25.17;59.08
59489;BME280;52572;55.144;73.372;2022-07-06T12:10:49;99177.88;;;25.40;58.44
59489;BME280;52572;55.144;73.372;2022-07-06T12:13:25;99183.91;;;25.70;56.91
59489;BME280;52572;55.144;73.372;2022-07-06T12:16:09;99164.06;;;25.43;56.53
59489;BME280;52572;55.144;73.372;2022-07-06T12:18:37;99194.09;;;25.24;57.68
59489;BME280;52572;55.144;73.372;2022-07-06T12:21:04;99203.53;;;25.20;57.65
59489;BME280;52572;55.144;73.372;2022-07-06T12:23:41;99177.47;;;25.14;57.81
59489;BME280;52572;55.144;73.372;2022-07-06T12:26:14;99180.94;;;25.36;57.64
59489;BME280;52572;55.144;73.372;2022-07-06T12:28:54;99182.38;;;25.32;57.89
59489;BME280;52572;55.144;73.372;2022-07-06T12:31:39;99196.69;;;25.40;58.68
59489;BME280;52572;55.144;73.372;2022-07-06T12:34:20;99210.91;;;25.11;58.51
59489;BME280;52572;55.144;73.372;2022-07-06T12:36:54;99198.56;;;24.80;57.67
59489;BME280;52572;55.144;73.372;2022-07-06T12:39:23;99227.25;;;24.95;57.61
59489;BME280;52572;55.144;73.372;2022-07-06T12:41:50;99223.53;;;24.96;57.89
59489;BME280;52572;55.144;73.372;2022-07-06T12:44:21;99210.00;;;25.04;57.63
59489;BME280;52572;55.144;73.372;2022-07-06T12:46:49;99221.13;;;25.23;56.49
59489;BME280;52572;55.144;73.372;2022-07-06T12:49:21;99227.63;;;25.35;56.21
59489;BME280;52572;55.144;73.372;2022-07-06T12:51:57;99233.09;;;25.49;55.59
59489;BME280;52572;55.144;73.372;2022-07-06T12:54:50;99237.50;;;25.28;56.09
59489;BME280;52572;55.144;73.372;2022-07-06T12:57:17;99215.63;;;24.88;56.77
59489;BME280;52572;55.144;73.372;2022-07-06T12:59:48;99242.84;;;24.69;57.13
59489;BME280;52572;55.144;73.372;2022-07-06T13:02:26;99202.47;;;24.26;57.11
59489;BME280;52572;55.144;73.372;2022-07-06T13:05:06;99226.44;;;24.27;57.64
59489;BME280;52572;55.144;73.372;2022-07-06T13:07:36;99226.06;;;24.30;57.66
59489;BME280;52572;55.144;73.372;2022-07-06T13:10:05;99247.13;;;24.34;58.12
59489;BME280;52572;55.144;73.372;2022-07-06T13:12:31;99229.41;;;24.33;57.75
59489;BME280;52572;55.144;73.372;2022-07-06T13:14:58;99211.66;;;24.31;57.62
59489;BME280;52572;55.144;73.372;2022-07-06T13:17:24;99216.88;;;24.40;57.02
59489;BME280;52572;55.144;73.372;2022-07-06T13:19:55;99234.66;;;24.56;57.00
59489;BME280;52572;55.144;73.372;2022-07-06T13:22:21;99237.06;;;24.51;57.79
59489;BME280;52572;55.144;73.372;2022-07-06T13:28:34;99252.72;;;24.69;56.55
59489;BME280;52572;55.144;73.372;2022-07-06T13:35:43;99263.78;;;24.14;57.39
59489;BME280;52572;55.144;73.372;2022-07-06T13:38:10;99260.22;;;23.83;57.71
59489;BME280;52572;55.144;73.372;2022-07-06T13:40:46;99282.25;;;23.70;58.32
59489;BME280;52572;55.144;73.372;2022-07-06T13:43:21;99283.16;;;23.39;58.80
59489;BME280;52572;55.144;73.372;2022-07-06T13:45:47;99288.91;;;23.28;59.64
59489;BME280;52572;55.144;73.372;2022-07-06T13:48:14;99293.59;;;23.02;60.02
59489;BME280;52572;55.144;73.372;2022-07-06T13:50:40;99296.88;;;22.81;60.14
59489;BME280;52572;55.144;73.372;2022-07-06T13:53:07;99296.63;;;22.51;61.16
59489;BME280;52572;55.144;73.372;2022-07-06T13:55:33;99309.91;;;22.36;61.78
59489;BME280;52572;55.144;73.372;2022-07-06T13:58:11;99319.09;;;22.25;61.86
59489;BME280;52572;55.144;73.372;2022-07-06T14:00:37;99316.81;;;22.05;62.19
59489;BME280;52572;55.144;73.372;2022-07-06T14:03:04;99323.47;;;22.01;62.37
59489;BME280;52572;55.144;73.372;2022-07-06T14:05:30;99310.47;;;21.73;62.60
59489;BME280;52572;55.144;73.372;2022-07-06T14:08:06;99335.50;;;21.72;62.86
59489;BME280;52572;55.144;73.372;2022-07-06T14:10:42;99308.56;;;21.32;63.47
59489;BME280;52572;55.144;73.372;2022-07-06T14:13:10;99335.44;;;21.38;64.37
59489;BME280;52572;55.144;73.372;2022-07-06T14:15:45;99330.56;;;21.25;64.96
59489;BME280;52572;55.144;73.372;2022-07-06T14:18:17;99327.50;;;21.04;65.38
59489;BME280;52572;55.144;73.372;2022-07-06T14:20:47;99353.69;;;21.00;65.72
59489;BME280;52572;55.144;73.372;2022-07-06T14:23:14;99331.53;;;20.73;65.68
59489;BME280;52572;55.144;73.372;2022-07-06T14:25:41;99356.25;;;20.83;66.85
59489;BME280;52572;55.144;73.372;2022-07-06T14:28:08;99304.41;;;20.43;67.11
59489;BME280;52572;55.144;73.372;2022-07-06T14:30:40;99344.13;;;20.54;67.76
59489;BME280;52572;55.144;73.372;2022-07-06T14:33:15;99353.41;;;20.50;68.32
59489;BME280;52572;55.144;73.372;2022-07-06T14:35:48;99347.34;;;20.40;68.90
59489;BME280;52572;55.144;73.372;2022-07-06T14:38:19;99361.69;;;20.39;69.30
59489;BME280;52572;55.144;73.372;2022-07-06T14:40:46;99340.94;;;20.24;69.66
59489;BME280;52572;55.144;73.372;2022-07-06T14:43:15;99354.78;;;20.28;69.81
59489;BME280;52572;55.144;73.372;2022-07-06T14:45:43;99316.16;;;20.05;70.09
59489;BME280;52572;55.144;73.372;2022-07-06T14:48:11;99330.47;;;20.04;70.94
59489;BME280;52572;55.144;73.372;2022-07-06T14:50:37;99327.63;;;19.98;71.13
59489;BME280;52572;55.144;73.372;2022-07-06T14:53:04;99325.84;;;19.88;71.39
59489;BME280;52572;55.144;73.372;2022-07-06T14:55:31;99324.78;;;19.81;71.77
59489;BME280;52572;55.144;73.372;2022-07-06T14:57:59;99351.19;;;19.92;71.99
59489;BME280;52572;55.144;73.372;2022-07-06T15:00:25;99329.75;;;19.76;72.32
59489;BME280;52572;55.144;73.372;2022-07-06T15:03:08;99355.22;;;19.78;72.76
59489;BME280;52572;55.144;73.372;2022-07-06T15:05:35;99349.44;;;19.65;73.43
59489;BME280;52572;55.144;73.372;2022-07-06T15:08:01;99349.75;;;19.62;73.78
59489;BME280;52572;55.144;73.372;2022-07-06T15:10:28;99320.22;;;19.37;73.62
59489;BME280;52572;55.144;73.372;2022-07-06T15:12:55;99306.06;;;19.18;74.42
59489;BME280;52572;55.144;73.372;2022-07-06T15:15:23;99326.75;;;19.24;75.17
59489;BME280;52572;55.144;73.372;2022-07-06T15:17:50;99352.38;;;19.25;75.89
59489;BME280;52572;55.144;73.372;2022-07-06T15:20:16;99350.44;;;19.18;76.29
59489;BME280;52572;55.144;73.372;2022-07-06T15:22:42;99348.16;;;19.05;76.97
59489;BME280;52572;55.144;73.372;2022-07-06T15:25:19;99329.91;;;18.82;77.40
59489;BME280;52572;55.144;73.372;2022-07-06T15:27:55;99353.25;;;18.88;77.63
59489;BME280;52572;55.144;73.372;2022-07-06T15:30:21;99331.38;;;18.66;77.48
59489;BME280;52572;55.144;73.372;2022-07-06T15:32:48;99325.25;;;18.56;77.83
59489;BME280;52572;55.144;73.372;2022-07-06T15:35:15;99319.84;;;18.48;78.16
59489;BME280;52572;55.144;73.372;2022-07-06T15:37:41;99331.97;;;18.50;78.60
59489;BME280;52572;55.144;73.372;2022-07-06T15:40:08;99347.09;;;18.50;78.98
59489;BME280;52572;55.144;73.372;2022-07-06T15:42:56;99357.31;;;18.44;79.17
59489;BME280;52572;55.144;73.372;2022-07-06T15:45:23;99323.97;;;18.12;79.23
59489;BME280;52572;55.144;73.372;2022-07-06T15:47:51;99372.75;;;18.31;78.68
59489;BME280;52572;55.144;73.372;2022-07-06T15:50:18;99382.56;;;18.21;79.21
59489;BME280;52572;55.144;73.372;2022-07-06T15:52:45;99383.41;;;18.11;79.48
59489;BME280;52572;55.144;73.372;2022-07-06T15:55:12;99363.81;;;17.92;79.99
59489;BME280;52572;55.144;73.372;2022-07-06T15:57:38;99381.41;;;17.94;80.31
59489;BME280;52572;55.144;73.372;2022-07-06T16:00:07;99396.06;;;17.88;80.11
59489;BME280;52572;55.144;73.372;2022-07-06T16:02:40;99373.31;;;17.65;80.42
59489;BME280;52572;55.144;73.372;2022-07-06T16:05:06;99390.66;;;17.70;81.04
59489;BME280;52572;55.144;73.372;2022-07-06T16:07:33;99391.03;;;17.55;81.15
59489;BME280;52572;55.144;73.372;2022-07-06T16:10:17;99393.97;;;17.52;80.09
59489;BME280;52572;55.144;73.372;2022-07-06T16:12:50;99351.19;;;17.16;80.77
59489;BME280;52572;55.144;73.372;2022-07-06T16:15:17;99376.88;;;17.25;81.25
59489;BME280;52572;55.144;73.372;2022-07-06T16:17:43;99403.56;;;17.33;81.58
59489;BME280;52572;55.144;73.372;2022-07-06T16:20:10;99413.88;;;17.27;82.17
59489;BME280;52572;55.144;73.372;2022-07-06T16:22:45;99405.06;;;17.16;82.12
59489;BME280;52572;55.144;73.372;2022-07-06T16:25:14;99416.06;;;17.11;82.09
59489;BME280;52572;55.144;73.372;2022-07-06T16:27:41;99412.84;;;17.08;82.99
59489;BME280;52572;55.144;73.372;2022-07-06T16:30:11;99415.91;;;17.03;82.84
59489;BME280;52572;55.144;73.372;2022-07-06T16:32:37;99416.41;;;16.97;83.20
59489;BME280;52572;55.144;73.372;2022-07-06T16:35:04;99418.84;;;16.89;83.51
59489;BME280;52572;55.144;73.372;2022-07-06T16:37:35;99425.41;;;16.84;83.67
59489;BME280;52572;55.144;73.372;2022-07-06T16:40:11;99414.91;;;16.73;83.39
59489;BME280;52572;55.144;73.372;2022-07-06T16:42:42;99409.81;;;16.60;83.81
59489;BME280;52572;55.144;73.372;2022-07-06T16:45:09;99423.19;;;16.58;84.00
59489;BME280;52572;55.144;73.372;2022-07-06T16:50:20;99426.41;;;16.41;84.07
59489;BME280;52572;55.144;73.372;2022-07-06T16:52:56;99407.59;;;16.23;84.47
59489;BME280;52572;55.144;73.372;2022-07-06T16:55:34;99435.28;;;16.30;84.99
59489;BME280;52572;55.144;73.372;2022-07-06T16:58:01;99433.13;;;16.24;85.65
59489;BME280;52572;55.144;73.372;2022-07-06T17:00:27;99414.69;;;16.01;86.35
59489;BME280;52572;55.144;73.372;2022-07-06T17:02:55;99441.09;;;16.12;86.18
59489;BME280;52572;55.144;73.372;2022-07-06T17:05:26;99409.56;;;15.88;86.18
59489;BME280;52572;55.144;73.372;2022-07-06T17:07:52;99397.56;;;15.72;86.19
59489;BME280;52572;55.144;73.372;2022-07-06T17:10:19;99435.53;;;15.94;87.23
59489;BME280;52572;55.144;73.372;2022-07-06T17:12:45;99415.00;;;15.75;87.76
59489;BME280;52572;55.144;73.372;2022-07-06T17:15:11;99418.03;;;15.70;87.59
59489;BME280;52572;55.144;73.372;2022-07-06T17:17:49;99414.19;;;15.63;87.13
59489;BME280;52572;55.144;73.372;2022-07-06T17:20:20;99377.97;;;15.31;86.51
59489;BME280;52572;55.144;73.372;2022-07-06T17:22:49;99374.13;;;15.23;86.63
59489;BME280;52572;55.144;73.372;2022-07-06T17:25:17;99394.56;;;15.33;86.44
59489;BME280;52572;55.144;73.372;2022-07-06T17:27:43;99445.34;;;15.59;87.73